»·PEaware :: ASA821 KSEA-KBIL

ASA821 :: KSEA-KBIL

FLIGHT INFORMATION

Flight Status: Arrived
Operator:
Alaska Airlines
More flights by this operator :: More flights under this callsign
Pilot: Andre N. (13929)
Aircraft: AIRBUS A319
(A319)
More flights by this aircraft type
Origin: KSEA Seattle-Tacoma Intl
United States
Destination: KBIL Billings Logan Intl
United States
More flights between these airports :: More routes between these airports
Route: +SEA6 NORMY J90 HLN LOKOW CRAZI2
File this flight plan on PilotEdge
Remarks:
Altitude:
(Current/Filed)
31,000ft
Speed:
(Current/Filed)
420kts
Departed: 18-Mar-18 03:39 PM
Arrived: 18-Mar-18 05:12 PM
Distance/Time
Traveled:
572nm/1:33
Distance/Time
To Go:
Arrived

Flight Plot

Page will automatically refresh every two minutes.

Flight plan parsing failed; only flown route is shown


Map Options




Map Legend


Flown Route
Filed Route
Departure Airport
Arrival Airport
Navaid (VOR, NDB)
Fix

Horizontal Profiles

Position Reports

Time Latitude Longitude Heading Altitude Ground
Speed
18-Mar-18 15:10 47.445676 -122.304362 109 442ft 0kts
18-Mar-18 15:11 47.445676 -122.304362 109 442ft 0kts
18-Mar-18 15:12 47.445676 -122.304362 109 442ft 0kts
18-Mar-18 15:13 47.445676 -122.304362 109 442ft 0kts
18-Mar-18 15:14 47.445676 -122.304362 109 442ft 0kts
18-Mar-18 15:15 47.445676 -122.304362 109 442ft 0kts
18-Mar-18 15:16 47.445676 -122.304362 109 442ft 0kts
18-Mar-18 15:17 47.445676 -122.304362 109 442ft 0kts
18-Mar-18 15:18 47.445676 -122.304362 109 442ft 0kts
18-Mar-18 15:19 47.445676 -122.304362 109 442ft 0kts
18-Mar-18 15:20 47.445676 -122.304362 109 442ft 0kts
18-Mar-18 15:21 47.445676 -122.304362 109 442ft 0kts
18-Mar-18 15:22 47.445676 -122.304362 109 442ft 0kts
18-Mar-18 15:23 47.445676 -122.304362 109 442ft 0kts
18-Mar-18 15:24 47.445676 -122.304362 109 442ft 0kts
18-Mar-18 15:25 47.445676 -122.304362 109 442ft 0kts
18-Mar-18 15:26 47.445676 -122.304362 109 442ft 0kts
18-Mar-18 15:27 47.445676 -122.304362 109 442ft 0kts
18-Mar-18 15:28 47.445676 -122.304362 109 442ft 0kts
18-Mar-18 15:29 47.445676 -122.304362 109 442ft 0kts
18-Mar-18 15:30 47.445856 -122.305116 109 442ft 2kts
18-Mar-18 15:31 47.445930 -122.305426 108 442ft 0kts
18-Mar-18 15:32 47.445930 -122.305426 108 442ft 0kts
18-Mar-18 15:33 47.445930 -122.305426 108 442ft 0kts
18-Mar-18 15:34 47.446087 -122.305328 324 442ft 5kts
18-Mar-18 15:35 47.450871 -122.306252 0 442ft 28kts
18-Mar-18 15:36 47.458941 -122.306173 0 442ft 28kts
18-Mar-18 15:37 47.463629 -122.306343 323 442ft 0kts
18-Mar-18 15:38 47.456894 -122.307785 180 442ft 113kts
18-Mar-18 15:39 47.415366 -122.308318 180 2792ft 167kts
18-Mar-18 15:40 47.359472 -122.302952 145 5247ft 244kts
18-Mar-18 15:41 47.359034 -122.203981 77 8959ft 271kts
18-Mar-18 15:42 47.375497 -122.097015 79 12438ft 283kts
18-Mar-18 15:43 47.392066 -121.982876 80 15493ft 296kts
18-Mar-18 15:44 47.409088 -121.863930 80 18137ft 308kts
18-Mar-18 15:45 47.426604 -121.737654 83 20690ft 316kts
18-Mar-18 15:46 47.427901 -121.608135 93 22977ft 321kts
18-Mar-18 15:47 47.426041 -121.475308 92 24974ft 331kts
18-Mar-18 15:48 47.424139 -121.343357 94 26627ft 343kts
18-Mar-18 15:49 47.421912 -121.207549 94 28204ft 353kts
18-Mar-18 15:50 47.419459 -121.066321 93 29927ft 355kts
18-Mar-18 15:51 47.416833 -120.924325 94 31128ft 359kts
18-Mar-18 15:52 47.413860 -120.778773 94 31141ft 385kts
18-Mar-18 15:53 47.410359 -120.615237 94 31141ft 427kts
18-Mar-18 15:54 47.404134 -120.435827 98 31140ft 444kts
18-Mar-18 15:55 47.379891 -120.267910 106 31125ft 442kts
18-Mar-18 15:56 47.350939 -120.101089 106 31140ft 442kts
18-Mar-18 15:57 47.320325 -119.926598 106 31140ft 442kts
18-Mar-18 15:58 47.289559 -119.753046 106 31140ft 442kts
18-Mar-18 15:59 47.259948 -119.587534 106 31140ft 442kts
18-Mar-18 16:00 47.228445 -119.413136 106 31140ft 442kts
18-Mar-18 16:01 47.207395 -119.247384 97 31127ft 445kts
18-Mar-18 16:02 47.198395 -119.068857 96 31140ft 445kts
18-Mar-18 16:03 47.189010 -118.888745 96 31140ft 445kts
18-Mar-18 16:04 47.179294 -118.707805 96 31140ft 445kts
18-Mar-18 16:05 47.169330 -118.527529 96 31140ft 445kts
18-Mar-18 16:06 47.159363 -118.352282 96 31140ft 445kts
18-Mar-18 16:07 47.149548 -118.183651 97 31137ft 444kts
18-Mar-18 16:08 47.138762 -118.003982 97 31140ft 444kts
18-Mar-18 16:09 47.127709 -117.823934 97 31140ft 444kts
18-Mar-18 16:10 47.116354 -117.644216 97 31140ft 444kts
18-Mar-18 16:11 47.104725 -117.464872 97 31140ft 444kts
18-Mar-18 16:12 47.093392 -117.294117 98 31112ft 444kts
18-Mar-18 16:13 47.081658 -117.120977 98 31139ft 444kts
18-Mar-18 16:14 47.069523 -116.946101 98 31140ft 444kts
18-Mar-18 16:15 47.057095 -116.771010 98 31140ft 444kts
18-Mar-18 16:16 47.044128 -116.592377 98 31140ft 444kts
18-Mar-18 16:17 47.030855 -116.413466 98 31140ft 444kts
18-Mar-18 16:18 47.018315 -116.247659 98 31129ft 444kts
18-Mar-18 16:19 47.004555 -116.069378 98 31140ft 444kts
18-Mar-18 16:20 46.990448 -115.890349 98 31140ft 444kts
18-Mar-18 16:21 46.976051 -115.711306 98 31140ft 444kts
18-Mar-18 16:22 46.961346 -115.532240 98 31140ft 444kts
18-Mar-18 16:23 46.946396 -115.353554 98 31140ft 444kts
18-Mar-18 16:24 46.932152 -115.185888 99 31137ft 444kts
18-Mar-18 16:25 46.917097 -115.012195 99 31140ft 444kts
18-Mar-18 16:26 46.901388 -114.834324 99 31140ft 444kts
18-Mar-18 16:27 46.885820 -114.665790 99 31140ft 443kts
18-Mar-18 16:28 46.870749 -114.502501 99 31140ft 443kts
18-Mar-18 16:29 46.854893 -114.331987 100 31108ft 444kts
18-Mar-18 16:30 46.839340 -114.166588 100 31138ft 443kts
18-Mar-18 16:31 46.822396 -113.989859 100 31140ft 443kts
18-Mar-18 16:32 46.805134 -113.812980 100 31140ft 443kts
18-Mar-18 16:33 46.787700 -113.637320 100 31140ft 443kts
18-Mar-18 16:34 46.769896 -113.460540 100 31140ft 443kts
18-Mar-18 16:35 46.753272 -113.297849 100 31110ft 443kts
18-Mar-18 16:36 46.735157 -113.122857 100 31139ft 443kts
18-Mar-18 16:37 46.716678 -112.947542 100 31140ft 443kts
18-Mar-18 16:38 46.697810 -112.771179 100 31140ft 443kts
18-Mar-18 16:39 46.678583 -112.594201 100 31140ft 443kts
18-Mar-18 16:40 46.659296 -112.419266 100 31140ft 443kts
18-Mar-18 16:41 46.640596 -112.251558 101 31127ft 443kts
18-Mar-18 16:42 46.621510 -112.082655 101 31140ft 443kts
18-Mar-18 16:43 46.600628 -111.905423 102 31140ft 442kts
18-Mar-18 16:44 46.576876 -111.730020 102 31140ft 442kts
18-Mar-18 16:45 46.553206 -111.555542 102 31140ft 442kts
18-Mar-18 16:46 46.529217 -111.380402 102 31140ft 442kts
18-Mar-18 16:47 46.506624 -111.216785 103 31135ft 442kts
18-Mar-18 16:48 46.482208 -111.042377 103 31140ft 442kts
18-Mar-18 16:49 46.451290 -110.870351 109 31140ft 440kts
18-Mar-18 16:50 46.414296 -110.701733 109 31000ft 441kts
18-Mar-18 16:51 46.376908 -110.532888 109 29102ft 444kts
18-Mar-18 16:52 46.339614 -110.365777 109 27058ft 434kts
18-Mar-18 16:53 46.303925 -110.206685 109 25035ft 420kts
18-Mar-18 16:54 46.268449 -110.050016 110 22988ft 399kts
18-Mar-18 16:55 46.235605 -109.906068 110 20916ft 357kts
18-Mar-18 16:56 46.205571 -109.775465 110 19062ft 334kts
18-Mar-18 16:57 46.170540 -109.654442 116 17305ft 323kts
18-Mar-18 16:58 46.133484 -109.538564 116 15621ft 314kts
18-Mar-18 16:59 46.097300 -109.426048 116 13901ft 305kts
18-Mar-18 17:00 46.063389 -109.320987 117 12084ft 297kts
18-Mar-18 17:01 46.029710 -109.216817 117 10222ft 269kts
18-Mar-18 17:02 46.000192 -109.126342 115 8546ft 237kts
18-Mar-18 17:03 45.972371 -109.041024 115 8098ft 235kts
18-Mar-18 17:04 45.946292 -108.954848 110 7796ft 234kts
18-Mar-18 17:05 45.921659 -108.872343 115 6813ft 217kts
18-Mar-18 17:06 45.892869 -108.800144 119 5828ft 208kts
18-Mar-18 17:07 45.864931 -108.737488 120 5426ft 181kts
18-Mar-18 17:08 45.846193 -108.674820 108 5368ft 146kts
18-Mar-18 17:09 45.832150 -108.627653 107 4658ft 127kts
18-Mar-18 17:10 45.821864 -108.588081 107 4164ft 127kts
18-Mar-18 17:11 45.808694 -108.540436 125 3660ft 14kts
18-Mar-18 17:12 45.807703 -108.540456 200 3660ft 0kts
18-Mar-18 17:13 45.804675 -108.538445 198 3660ft 8kts
18-Mar-18 17:14 45.804105 -108.538386 131 3660ft 0kts
18-Mar-18 17:15 45.829841 -108.618986 105 4575ft 126kts

Navigation Log

Ident Type
Flight plan parsing failed, navigation log unavailable